Time;durP1;ratioP1;P1;durP2;ratioP2;P2;SDS_P1;SDS_P2;PMS_P1;PMS_P2;Temp;Humidity;BMP_temperature;BMP_pressure;BME280_temperature;BME280_humidity;BME280_pressure;Samples;Min_cycle;Max_cycle;Signal;HPM_P1;HPM_P2
2023/03/24 00:03:53;;;;;;;27.20;24.15;;;16.70;81.30;;;;;;10846302;32;20015;-73
2023/03/24 00:09:55;;;;;;;25.37;22.13;;;16.70;81.60;;;;;;10862278;32;20051;-73
2023/03/24 00:15:58;;;;;;;25.37;22.75;;;16.80;81.60;;;;;;10849419;32;20019;-73
2023/03/24 00:22:01;;;;;;;24.90;21.05;;;16.80;81.90;;;;;;10861458;32;20443;-73
2023/03/24 00:28:06;;;;;;;22.40;17.40;;;16.80;81.60;;;;;;10836005;32;20043;-73
2023/03/24 00:34:09;;;;;;;33.42;29.85;;;16.70;81.80;;;;;;10861082;32;20054;-73
2023/03/24 00:40:16;;;;;;;26.52;23.30;;;16.60;82.00;;;;;;10861557;32;20019;-73
2023/03/24 00:46:27;;;;;;;26.30;23.45;;;16.50;81.90;;;;;;10860262;32;20020;-73
2023/03/24 00:52:33;;;;;;;26.85;22.27;;;16.50;81.60;;;;;;10860184;32;20055;-73
2023/03/24 00:58:35;;;;;;;28.12;23.45;;;16.30;81.70;;;;;;10846273;32;20071;-73
2023/03/24 01:04:38;;;;;;;27.83;21.77;;;16.30;81.70;;;;;;10860496;32;20019;-73
2023/03/24 01:10:49;;;;;;;31.08;27.73;;;16.20;81.70;;;;;;10843263;32;20024;-73
2023/03/24 01:16:51;;;;;;;36.20;29.48;;;16.10;81.70;;;;;;10864425;32;20020;-73
2023/03/24 01:22:54;;;;;;;38.35;31.08;;;16.10;81.50;;;;;;10862934;32;20392;-73
2023/03/24 01:28:57;;;;;;;27.65;20.60;;;16.10;81.50;;;;;;10865565;32;20027;-73
2023/03/24 01:34:59;;;;;;;18.33;16.45;;;16.00;81.30;;;;;;10851475;32;20314;-73
2023/03/24 01:41:02;;;;;;;19.67;15.23;;;16.00;81.30;;;;;;10866452;32;20023;-73
2023/03/24 01:47:07;;;;;;;16.40;14.48;;;16.00;81.00;;;;;;10865065;32;20020;-73
2023/03/24 01:53:10;;;;;;;16.92;14.57;;;15.90;80.90;;;;;;10865024;32;20409;-73
2023/03/24 01:59:22;;;;;;;16.60;13.23;;;15.60;81.10;;;;;;10865267;32;20103;-73
2023/03/24 02:05:31;;;;;;;25.15;21.87;;;15.50;81.60;;;;;;10864521;32;20019;-73
2023/03/24 02:11:35;;;;;;;29.65;23.67;;;15.50;81.20;;;;;;10850205;32;20066;-73
2023/03/24 02:17:55;;;;;;;20.37;16.35;;;15.70;81.00;;;;;;10864816;32;20020;-73
2023/03/24 02:24:10;;;;;;;22.52;17.60;;;15.60;81.00;;;;;;10865062;32;20096;-73
2023/03/24 02:30:25;;;;;;;22.73;16.42;;;15.70;80.90;;;;;;10864322;32;20020;-73
2023/03/24 02:36:36;;;;;;;22.62;19.95;;;15.70;80.80;;;;;;10864166;32;20051;-73
2023/03/24 02:42:57;;;;;;;26.83;23.00;;;15.70;80.90;;;;;;10864593;32;20100;-73
2023/03/24 02:49:28;;;;;;;38.20;29.52;;;15.70;81.20;;;;;;10864256;32;20069;-72
2023/03/24 02:55:36;;;;;;;43.13;25.73;;;15.70;81.20;;;;;;10818340;32;20027;-73
2023/03/24 03:01:42;;;;;;;37.58;30.48;;;15.70;81.10;;;;;;10862699;32;20050;-72
2023/03/24 03:07:46;;;;;;;28.77;24.30;;;15.70;81.00;;;;;;10862673;32;20077;-73
2023/03/24 03:14:02;;;;;;;32.88;26.23;;;15.70;81.00;;;;;;10863417;32;20031;-72
2023/03/24 03:20:19;;;;;;;17.75;11.50;;;15.70;80.90;;;;;;10860533;32;20024;-73
2023/03/24 03:26:27;;;;;;;27.50;21.25;;;15.70;80.90;;;;;;10863282;32;20024;-73
2023/03/24 03:32:37;;;;;;;18.17;14.87;;;15.60;80.80;;;;;;10859365;32;20023;-73
2023/03/24 03:38:40;;;;;;;35.00;25.98;;;15.60;80.80;;;;;;10861465;32;20046;-72
2023/03/24 03:44:42;;;;;;;23.15;17.10;;;15.60;80.80;;;;;;10863439;32;20053;-73
2023/03/24 03:50:45;;;;;;;34.80;26.98;;;15.60;81.00;;;;;;10861776;32;20027;-72
2023/03/24 03:56:49;;;;;;;31.87;25.60;;;15.50;81.30;;;;;;10843633;32;20055;-73
2023/03/24 04:03:11;;;;;;;17.05;13.00;;;15.40;81.30;;;;;;10861897;32;20024;-72
2023/03/24 04:09:40;;;;;;;22.25;15.23;;;15.30;81.30;;;;;;10861766;32;20038;-73
2023/03/24 04:15:53;;;;;;;15.75;11.50;;;15.30;81.40;;;;;;10662761;33;20396;-73
2023/03/24 04:22:19;;;;;;;13.68;8.82;;;15.20;81.40;;;;;;10661704;33;20033;-72
2023/03/24 04:28:57;;;;;;;26.30;21.30;;;15.20;81.40;;;;;;10671187;33;20140;-73
2023/03/24 04:35:09;;;;;;;28.70;20.50;;;15.20;81.40;;;;;;10789265;32;20031;-73
2023/03/24 04:41:16;;;;;;;16.40;11.65;;;15.20;81.40;;;;;;10789620;32;20054;-72
2023/03/24 04:47:25;;;;;;;28.53;23.67;;;15.20;81.50;;;;;;10774757;32;20059;-74
2023/03/24 04:53:30;;;;;;;19.95;12.65;;;15.10;81.70;;;;;;10929506;32;20027;-75
2023/03/24 04:59:33;;;;;;;24.15;19.48;;;15.10;81.60;;;;;;10940335;32;20026;-74
2023/03/24 05:05:36;;;;;;;23.48;16.80;;;15.30;81.90;;;;;;10944237;32;20043;-74
2023/03/24 05:11:38;;;;;;;17.33;13.50;;;15.50;81.50;;;;;;10878037;32;20027;-74
2023/03/24 05:17:41;;;;;;;18.90;14.48;;;15.60;81.30;;;;;;10865796;32;20050;-75
2023/03/24 05:23:44;;;;;;;27.13;20.67;;;15.40;81.40;;;;;;10853801;32;20318;-74
2023/03/24 05:29:46;;;;;;;18.98;15.48;;;15.50;81.70;;;;;;10853315;32;20051;-74
2023/03/24 05:35:50;;;;;;;29.27;20.52;;;15.30;81.60;;;;;;10850003;32;20416;-72
2023/03/24 05:41:52;;;;;;;16.37;12.93;;;15.20;81.80;;;;;;10866347;32;20020;-73
2023/03/24 05:47:55;;;;;;;20.10;15.45;;;15.20;81.60;;;;;;10852122;32;20027;-72
2023/03/24 05:53:58;;;;;;;30.85;22.20;;;14.70;81.70;;;;;;10864751;32;20024;-72
2023/03/24 06:00:03;;;;;;;30.55;22.90;;;14.70;82.10;;;;;;10864837;32;20431;-72
2023/03/24 06:06:17;;;;;;;24.67;17.75;;;15.00;82.40;;;;;;10864453;32;20051;-75
2023/03/24 06:12:20;;;;;;;24.58;17.45;;;15.10;82.70;;;;;;10864914;32;20050;-75
2023/03/24 06:18:27;;;;;;;23.48;18.90;;;15.30;83.00;;;;;;10864754;32;20042;-74
2023/03/24 06:24:31;;;;;;;27.35;18.80;;;15.50;83.00;;;;;;10847627;32;20046;-75
2023/03/24 06:30:35;;;;;;;53.38;39.33;;;15.50;83.00;;;;;;10849830;32;20036;-75
2023/03/24 06:36:39;;;;;;;35.35;27.75;;;15.50;84.00;;;;;;10850206;32;20024;-74
2023/03/24 06:42:42;;;;;;;48.67;35.30;;;15.70;84.40;;;;;;10864018;32;20054;-75
2023/03/24 06:48:45;;;;;;;47.03;38.83;;;15.70;83.90;;;;;;10863242;32;20046;-75
2023/03/24 06:54:48;;;;;;;29.30;24.17;;;15.60;84.20;;;;;;10845461;32;20073;-75
2023/03/24 07:00:52;;;;;;;27.95;20.95;;;15.70;84.30;;;;;;10863392;32;20046;-75
2023/03/24 07:06:57;;;;;;;36.45;30.25;;;16.00;84.20;;;;;;10862694;32;20383;-75
2023/03/24 07:13:02;;;;;;;31.27;24.95;;;16.10;83.90;;;;;;10848831;32;20146;-74
2023/03/24 07:19:04;;;;;;;30.50;22.95;;;16.20;83.70;;;;;;10861938;32;20046;-75
2023/03/24 07:25:08;;;;;;;23.98;20.15;;;16.30;84.40;;;;;;10862648;32;20036;-75
2023/03/24 07:31:11;;;;;;;27.13;20.90;;;16.30;84.10;;;;;;10848100;32;20066;-74
2023/03/24 07:37:14;;;;;;;30.02;22.23;;;16.00;84.20;;;;;;10862497;32;20396;-74
2023/03/24 07:43:16;;;;;;;29.63;20.45;;;15.90;84.40;;;;;;10862987;32;20028;-74
2023/03/24 07:49:20;;;;;;;35.70;24.90;;;16.10;84.30;;;;;;10852514;27;20062;-73
2023/03/24 07:55:23;;;;;;;36.10;24.02;;;16.30;83.80;;;;;;10858894;32;20031;-73
2023/03/24 08:01:25;;;;;;;42.15;31.95;;;16.40;83.60;;;;;;10832738;32;20062;-73
2023/03/24 08:07:28;;;;;;;28.67;19.98;;;16.40;84.00;;;;;;10862321;32;20275;-73
2023/03/24 08:13:30;;;;;;;52.53;39.30;;;16.20;83.80;;;;;;10843455;32;20031;-73
2023/03/24 08:19:32;;;;;;;38.05;25.98;;;16.20;84.40;;;;;;10862114;32;20019;-73
2023/03/24 08:25:36;;;;;;;64.35;41.30;;;16.40;84.60;;;;;;10862827;32;20078;-73
2023/03/24 08:31:39;;;;;;;48.72;31.12;;;16.60;84.40;;;;;;10867146;32;20050;-73
2023/03/24 08:37:44;;;;;;;36.55;28.27;;;16.70;84.30;;;;;;10867604;32;20027;-73
2023/03/24 08:43:47;;;;;;;30.12;21.67;;;16.80;83.60;;;;;;10855348;32;20043;-73
2023/03/24 08:49:50;;;;;;;43.55;35.45;;;16.80;83.60;;;;;;10864143;32;20050;-73
2023/03/24 08:55:52;;;;;;;57.20;41.33;;;16.80;84.10;;;;;;10853554;32;20310;-73
2023/03/24 09:01:54;;;;;;;35.80;26.83;;;16.80;84.10;;;;;;10866318;32;20020;-73
2023/03/24 09:07:59;;;;;;;36.25;28.77;;;16.80;84.40;;;;;;10863364;32;20043;-74
2023/03/24 09:14:01;;;;;;;52.83;38.00;;;16.90;84.30;;;;;;10853933;32;20028;-74
2023/03/24 09:20:10;;;;;;;43.28;31.58;;;16.80;83.90;;;;;;10867582;32;20016;-74
2023/03/24 09:26:12;;;;;;;45.12;33.33;;;16.90;84.40;;;;;;10847758;32;20028;-74
2023/03/24 09:32:14;;;;;;;52.72;38.95;;;17.10;84.50;;;;;;10866468;32;20012;-74
2023/03/24 09:38:16;;;;;;;34.75;25.37;;;17.20;83.50;;;;;;10847633;32;20085;-74
2023/03/24 09:44:32;;;;;;;22.58;16.48;;;17.10;83.70;;;;;;10866336;32;20011;-74
2023/03/24 09:50:42;;;;;;;15.55;11.02;;;16.80;83.50;;;;;;10861882;32;20023;-74
2023/03/24 09:56:46;;;;;;;28.35;23.48;;;16.80;84.00;;;;;;10850605;32;20065;-74
2023/03/24 10:02:49;;;;;;;29.02;20.73;;;16.80;84.00;;;;;;10865108;32;20050;-74
2023/03/24 10:09:23;;;;;;;23.90;16.92;;;16.90;83.50;;;;;;10865296;32;20012;-73
2023/03/24 10:15:33;;;;;;;34.42;27.08;;;16.90;83.40;;;;;;10852272;32;20329;-73
2023/03/24 10:21:38;;;;;;;39.38;28.98;;;16.90;83.70;;;;;;10851086;32;20058;-73
2023/03/24 10:27:50;;;;;;;23.52;19.50;;;17.10;84.10;;;;;;10864818;32;20015;-73
2023/03/24 10:33:53;;;;;;;19.17;14.02;;;17.40;83.70;;;;;;10864652;32;20371;-73
2023/03/24 10:39:55;;;;;;;25.62;20.10;;;17.30;83.30;;;;;;10865154;32;20018;-73
2023/03/24 10:45:58;;;;;;;24.10;18.83;;;17.50;84.10;;;;;;10863641;32;20004;-73
2023/03/24 10:52:02;;;;;;;35.08;26.17;;;17.60;83.90;;;;;;10849618;32;20049;-73
2023/03/24 10:58:18;;;;;;;21.98;18.58;;;17.60;84.20;;;;;;10863330;32;20016;-73
2023/03/24 11:04:21;;;;;;;37.97;27.42;;;17.60;84.10;;;;;;10863702;32;20313;-73
2023/03/24 11:10:26;;;;;;;23.98;19.33;;;17.70;84.10;;;;;;10863542;32;20008;-73
2023/03/24 11:16:36;;;;;;;19.45;14.07;;;17.80;83.80;;;;;;10862924;32;20420;-73
2023/03/24 11:22:39;;;;;;;28.87;23.87;;;17.80;83.60;;;;;;10863288;32;20039;-74
2023/03/24 11:28:46;;;;;;;36.53;28.55;;;17.70;83.50;;;;;;10858542;32;20050;-74
2023/03/24 11:34:56;;;;;;;21.75;19.20;;;17.70;82.70;;;;;;10863022;32;20038;-73
2023/03/24 11:41:03;;;;;;;30.70;26.35;;;17.90;83.00;;;;;;10859323;32;20024;-74
2023/03/24 11:47:17;;;;;;;25.48;20.65;;;18.50;83.10;;;;;;10848120;32;20019;-74
2023/03/24 11:53:27;;;;;;;25.55;18.73;;;19.20;83.00;;;;;;10861566;32;20054;-74
2023/03/24 11:59:32;;;;;;;23.58;17.60;;;19.70;82.60;;;;;;10840579;32;20397;-74
2023/03/24 12:05:49;;;;;;;18.02;14.65;;;20.00;81.40;;;;;;10825103;33;20303;-74
2023/03/24 12:12:06;;;;;;;41.55;36.63;;;20.20;80.70;;;;;;10810318;33;20397;-74
2023/03/24 12:18:14;;;;;;;25.45;20.17;;;20.40;79.60;;;;;;10807866;33;20299;-74
2023/03/24 12:24:30;;;;;;;29.57;25.53;;;20.20;78.40;;;;;;10825120;33;20089;-75
2023/03/24 12:30:44;;;;;;;22.25;17.98;;;20.30;78.00;;;;;;10811935;33;20117;-75
2023/03/24 12:37:03;;;;;;;30.45;23.75;;;20.30;77.50;;;;;;10821272;33;20031;-75
2023/03/24 12:43:24;;;;;;;28.58;23.30;;;20.30;76.30;;;;;;10821632;33;20020;-75
2023/03/24 12:49:47;;;;;;;34.20;28.25;;;20.40;78.00;;;;;;10811098;32;20040;-75
2023/03/24 12:56:09;;;;;;;22.23;17.87;;;20.50;76.60;;;;;;10819191;33;20062;-75
2023/03/24 13:02:53;;;;;;;23.60;19.48;;;20.70;77.40;;;;;;10830568;32;20104;-75
2023/03/24 13:09:18;;;;;;;20.12;15.30;;;20.70;77.00;;;;;;10859929;32;20028;-74
2023/03/24 13:15:27;;;;;;;23.02;19.10;;;20.90;77.70;;;;;;10868190;32;20062;-74
2023/03/24 13:21:33;;;;;;;22.08;18.62;;;21.00;78.30;;;;;;10867822;32;20039;-74
2023/03/24 13:27:39;;;;;;;22.37;16.40;;;21.30;78.80;;;;;;10868380;32;20053;-74
2023/03/24 13:33:43;;;;;;;21.15;17.27;;;21.50;77.70;;;;;;10854199;32;20058;-74
2023/03/24 13:39:47;;;;;;;27.20;21.10;;;21.70;77.60;;;;;;10868461;32;20024;-74
2023/03/24 13:45:57;;;;;;;35.15;27.05;;;21.80;78.40;;;;;;10833981;32;20050;-75
2023/03/24 13:52:03;;;;;;;33.75;29.10;;;22.00;78.90;;;;;;10833432;32;20065;-75
2023/03/24 13:58:12;;;;;;;23.95;18.17;;;22.00;78.90;;;;;;10865370;32;20412;-75
2023/03/24 14:05:05;;;;;;;21.77;15.45;;;22.00;78.90;;;;;;10865238;32;20024;-74
2023/03/24 14:11:48;;;;;;;27.00;23.33;;;22.10;79.10;;;;;;10678445;33;20060;-74
2023/03/24 14:17:54;;;;;;;13.88;10.25;;;22.10;78.10;;;;;;10641847;33;20068;-74
2023/03/24 14:23:58;;;;;;;17.48;13.43;;;22.00;77.90;;;;;;10629972;33;20059;-74
2023/03/24 14:30:11;;;;;;;22.13;18.73;;;21.80;78.10;;;;;;10642353;33;20048;-74
2023/03/24 14:36:38;;;;;;;18.33;11.43;;;21.70;77.90;;;;;;10605326;33;20042;-73
2023/03/24 14:43:23;;;;;;;20.25;17.33;;;21.50;78.50;;;;;;10640836;33;20294;-73
2023/03/24 14:49:31;;;;;;;25.48;19.75;;;21.40;78.40;;;;;;10668229;33;20060;-74
2023/03/24 14:55:33;;;;;;;46.63;34.90;;;21.30;77.90;;;;;;10712166;33;20411;-73
2023/03/24 15:01:37;;;;;;;58.13;51.95;;;20.90;77.10;;;;;;10684270;33;20029;-73
2023/03/24 15:07:40;;;;;;;60.72;49.08;;;20.90;76.30;;;;;;10713015;33;20044;-73
2023/03/24 15:13:50;;;;;;;53.90;43.25;;;20.70;76.30;;;;;;10712270;33;20419;-73
2023/03/24 15:19:54;;;;;;;39.38;30.15;;;20.70;76.40;;;;;;10711702;33;20046;-73
2023/03/24 15:25:56;;;;;;;53.95;42.50;;;21.10;76.40;;;;;;10824627;32;20393;-73
2023/03/24 15:32:21;;;;;;;46.95;39.70;;;21.70;77.50;;;;;;10850059;32;20165;-73
2023/03/24 15:38:31;;;;;;;50.40;44.90;;;21.70;76.90;;;;;;10862207;32;20047;-73
2023/03/24 15:44:37;;;;;;;54.20;45.90;;;22.00;77.00;;;;;;10848869;32;20019;-73
2023/03/24 15:50:53;;;;;;;52.80;44.20;;;22.20;76.90;;;;;;10699266;27;7224988;-73
2023/03/24 15:57:15;;;;;;;44.28;31.92;;;22.20;77.50;;;;;;11018152;32;20426;-73
2023/03/24 16:03:17;;;;;;;34.88;29.27;;;22.40;77.60;;;;;;11014381;32;20058;-73
2023/03/24 16:09:22;;;;;;;43.40;36.55;;;22.60;76.70;;;;;;11018802;32;20429;-73
2023/03/24 16:15:24;;;;;;;36.90;31.23;;;22.70;76.20;;;;;;11016318;32;20057;-75
2023/03/24 16:21:28;;;;;;;46.20;36.72;;;22.70;76.40;;;;;;11015216;32;20363;-74
2023/03/24 16:27:30;;;;;;;39.78;30.52;;;22.70;76.50;;;;;;11017548;32;20022;-73
2023/03/24 16:33:34;;;;;;;29.75;23.62;;;22.60;75.90;;;;;;11016270;32;20033;-73
2023/03/24 16:39:36;;;;;;;24.08;20.33;;;22.80;76.30;;;;;;11015280;32;20045;-73
2023/03/24 16:45:39;;;;;;;25.60;19.77;;;22.70;76.30;;;;;;11020141;32;20041;-73
2023/03/24 16:51:41;;;;;;;28.77;23.62;;;22.30;76.70;;;;;;11023418;32;20049;-73
2023/03/24 16:57:44;;;;;;;21.25;17.45;;;22.00;76.50;;;;;;11024498;32;20045;-73
2023/03/24 17:03:48;;;;;;;19.42;15.98;;;21.40;77.40;;;;;;11024238;32;20294;-73
2023/03/24 17:09:50;;;;;;;17.27;12.85;;;21.10;78.20;;;;;;11024118;32;20056;-73
2023/03/24 17:15:53;;;;;;;20.05;15.80;;;20.80;78.70;;;;;;10877063;32;20040;-72
2023/03/24 17:22:05;;;;;;;21.60;16.27;;;20.50;78.40;;;;;;10830478;32;20031;-73
2023/03/24 17:28:14;;;;;;;17.95;12.13;;;20.10;78.00;;;;;;10814759;33;20062;-73
2023/03/24 17:34:17;;;;;;;16.80;12.15;;;19.90;78.20;;;;;;10828133;33;20051;-73
2023/03/24 17:40:19;;;;;;;22.73;19.90;;;19.80;78.50;;;;;;10827740;33;20054;-72
2023/03/24 17:46:21;;;;;;;28.50;21.95;;;19.80;78.50;;;;;;10829010;33;20385;-72
2023/03/24 17:52:24;;;;;;;17.00;13.27;;;19.30;78.00;;;;;;10828103;33;20028;-73
2023/03/24 17:58:26;;;;;;;18.65;12.82;;;19.20;79.20;;;;;;10827463;32;20023;-72
2023/03/24 18:04:29;;;;;;;19.80;14.98;;;19.30;79.60;;;;;;10828675;33;20028;-73
2023/03/24 18:10:34;;;;;;;24.27;17.65;;;19.30;79.90;;;;;;10828051;33;20023;-73
2023/03/24 18:16:38;;;;;;;16.27;13.32;;;19.30;79.80;;;;;;10838941;32;20036;-73
2023/03/24 18:22:40;;;;;;;17.67;14.27;;;19.30;79.60;;;;;;10850339;32;20035;-73
2023/03/24 18:28:44;;;;;;;18.77;13.82;;;19.30;80.10;;;;;;10852073;32;20019;-73
2023/03/24 18:34:46;;;;;;;13.82;10.90;;;19.30;80.00;;;;;;10861146;32;20019;-73
2023/03/24 18:41:16;;;;;;;15.75;13.70;;;19.40;80.20;;;;;;10864923;32;20019;-73
2023/03/24 18:47:19;;;;;;;16.20;12.20;;;19.30;79.80;;;;;;10848438;32;20046;-73
2023/03/24 18:53:21;;;;;;;12.20;10.05;;;19.30;80.20;;;;;;10862938;32;20036;-73
2023/03/24 18:59:24;;;;;;;19.62;14.35;;;19.20;80.60;;;;;;10864101;32;20019;-73
2023/03/24 19:05:28;;;;;;;12.63;9.98;;;19.10;80.30;;;;;;10863349;32;20036;-72
2023/03/24 19:11:30;;;;;;;15.13;12.95;;;18.80;80.70;;;;;;10847144;32;20066;-73
2023/03/24 19:17:32;;;;;;;12.20;9.88;;;18.70;81.00;;;;;;10857958;32;20062;-73
2023/03/24 19:23:35;;;;;;;11.73;10.02;;;18.80;80.90;;;;;;10862166;32;20057;-73
2023/03/24 19:29:37;;;;;;;12.82;10.27;;;18.90;80.80;;;;;;10863432;32;20051;-73
2023/03/24 19:35:39;;;;;;;13.13;8.82;;;19.00;81.10;;;;;;10863206;32;20051;-73
2023/03/24 19:41:42;;;;;;;12.18;8.32;;;18.90;81.50;;;;;;10862961;32;20042;-73
2023/03/24 19:47:47;;;;;;;10.98;8.75;;;18.90;82.00;;;;;;10861358;32;20027;-73
2023/03/24 19:53:49;;;;;;;10.63;7.70;;;18.90;81.90;;;;;;10859220;32;20313;-73
2023/03/24 19:59:51;;;;;;;8.30;6.65;;;18.80;81.70;;;;;;10858321;32;20046;-73
2023/03/24 20:05:54;;;;;;;10.05;7.07;;;18.60;81.80;;;;;;10847530;32;20032;-74
2023/03/24 20:11:56;;;;;;;8.73;6.37;;;18.50;82.00;;;;;;10861107;32;20062;-74
2023/03/24 20:17:58;;;;;;;7.78;5.03;;;18.50;82.10;;;;;;10861629;32;20040;-74
2023/03/24 20:24:02;;;;;;;6.22;4.37;;;18.70;81.80;;;;;;10863101;32;20046;-74
2023/03/24 20:30:07;;;;;;;6.30;4.65;;;18.80;82.50;;;;;;10864597;32;20032;-74
2023/03/24 20:36:09;;;;;;;10.55;6.65;;;18.90;82.90;;;;;;10853563;32;20392;-74
2023/03/24 20:42:12;;;;;;;7.25;6.30;;;19.00;82.60;;;;;;10867492;32;20393;-73
2023/03/24 20:48:14;;;;;;;8.70;6.68;;;19.00;82.30;;;;;;10864211;32;20054;-73
2023/03/24 20:54:16;;;;;;;7.95;6.05;;;18.80;81.80;;;;;;10865883;32;20027;-73
2023/03/24 21:00:19;;;;;;;14.43;10.07;;;18.80;81.40;;;;;;10863410;32;20332;-73
2023/03/24 21:06:22;;;;;;;9.60;7.87;;;18.50;80.80;;;;;;10864909;32;20050;-73
2023/03/24 21:12:25;;;;;;;11.82;9.02;;;18.10;80.40;;;;;;10867165;32;20047;-73
2023/03/24 21:18:31;;;;;;;16.25;13.38;;;18.00;80.70;;;;;;10866770;32;20023;-72
2023/03/24 21:24:33;;;;;;;12.57;9.73;;;17.90;80.00;;;;;;10866764;32;20019;-73
2023/03/24 21:30:36;;;;;;;12.85;8.57;;;17.70;80.20;;;;;;10851303;32;20031;-73
2023/03/24 21:36:39;;;;;;;13.65;11.70;;;18.00;80.90;;;;;;10853020;32;20593;-73
2023/03/24 21:42:41;;;;;;;13.75;11.50;;;18.20;81.40;;;;;;10863982;32;20053;-73
2023/03/24 21:48:48;;;;;;;12.93;10.20;;;18.20;81.10;;;;;;10847337;32;20408;-73
2023/03/24 21:54:52;;;;;;;14.05;10.75;;;18.20;81.00;;;;;;10865065;32;20054;-73
2023/03/24 22:00:54;;;;;;;13.05;9.82;;;18.20;81.50;;;;;;10863846;32;20028;-73
2023/03/24 22:06:57;;;;;;;11.18;9.40;;;18.10;82.60;;;;;;10851784;32;20031;-73
2023/03/24 22:13:01;;;;;;;16.95;12.88;;;18.10;82.50;;;;;;10865055;32;20066;-73
2023/03/24 22:19:03;;;;;;;12.43;9.23;;;18.10;82.50;;;;;;10865496;32;20341;-74
2023/03/24 22:25:07;;;;;;;12.40;11.05;;;18.10;82.20;;;;;;10865392;32;20042;-73
2023/03/24 22:31:15;;;;;;;13.15;9.52;;;18.00;82.10;;;;;;10863910;32;20058;-73
2023/03/24 22:37:18;;;;;;;10.82;9.35;;;18.00;82.10;;;;;;10864907;32;20059;-73
2023/03/24 22:43:20;;;;;;;12.27;9.27;;;17.90;81.70;;;;;;10864160;32;20046;-73
2023/03/24 22:49:22;;;;;;;11.38;8.88;;;17.80;81.70;;;;;;10864860;32;20047;-73
2023/03/24 22:55:25;;;;;;;12.27;9.77;;;17.40;82.00;;;;;;10864959;32;20032;-73
2023/03/24 23:01:28;;;;;;;15.02;11.18;;;17.30;82.40;;;;;;10863718;32;20059;-74
2023/03/24 23:07:31;;;;;;;15.18;13.07;;;17.30;82.60;;;;;;10864299;32;20070;-74
2023/03/24 23:13:34;;;;;;;12.30;9.85;;;17.30;82.40;;;;;;10863229;32;20020;-74
2023/03/24 23:19:36;;;;;;;15.02;10.15;;;17.40;82.10;;;;;;10862626;32;20058;-74
2023/03/24 23:26:04;;;;;;;11.90;9.93;;;17.30;82.00;;;;;;10848819;32;20062;-74
2023/03/24 23:32:07;;;;;;;11.90;9.68;;;17.20;82.20;;;;;;10862162;32;20049;-74
2023/03/24 23:38:10;;;;;;;11.88;10.02;;;17.10;82.20;;;;;;10848167;32;20040;-74
2023/03/24 23:44:13;;;;;;;16.70;9.98;;;17.00;82.30;;;;;;10862545;32;20046;-74
2023/03/24 23:50:17;;;;;;;11.12;8.02;;;17.00;82.00;;;;;;10853008;27;20054;-74
2023/03/24 23:56:20;;;;;;;10.95;7.60;;;17.00;81.70;;;;;;10861965;32;20055;-74
